Time;durP1;ratioP1;P1;durP2;ratioP2;P2;SDS_P1;SDS_P2;PMS_P1;PMS_P2;Temp;Humidity;BMP_temperature;BMP_pressure;BME280_temperature;BME280_humidity;BME280_pressure;Samples;Min_cycle;Max_cycle;Signal;HPM_P1;HPM_P2
2023/07/17 00:01:59;;;;;;;;;;;;;;;;;;5106633;28;20042;-62
2023/07/17 00:04:24;;;;;;;;;;;;;;;;;;5108091;27;19928;-62
2023/07/17 00:06:50;;;;;;;;;;;;;;;;;;5107272;28;19923;-62
2023/07/17 00:09:16;;;;;;;;;;;;;;;;;;5122866;27;19927;-62
2023/07/17 00:11:42;;;;;;;;;;;;;;;;;;5107872;28;19931;-62
2023/07/17 00:14:08;;;;;;;;;;;;;;;;;;5106970;28;19924;-62
2023/07/17 00:16:34;;;;;;;;;;;;;;;;;;5106031;28;19976;-62
2023/07/17 00:19:00;;;;;;;;;;;;;;;;;;5105252;28;19924;-61
2023/07/17 00:21:26;;;;;;;;;;;;;;;;;;5106529;28;19949;-62
2023/07/17 00:23:52;;;;;;;;;;;;;;;;;;5106892;28;19950;-61
2023/07/17 00:26:18;;;;;;;;;;;;;;;;;;5088447;28;20595;-61
2023/07/17 00:28:44;;;;;;;;;;;;;;;;;;5107947;27;19969;-61
2023/07/17 00:31:10;;;;;;;;;;;;;;;;;;5106426;28;20300;-63
2023/07/17 00:33:36;;;;;;;;;;;;;;;;;;5106376;28;19923;-62
2023/07/17 00:36:02;;;;;;;;;;;;;;;;;;5106146;28;19927;-62
2023/07/17 00:38:28;;;;;;;;;;;;;;;;;;5106904;28;19924;-61
2023/07/17 00:40:53;;;;;;;;;;;;;;;;;;5106049;28;19924;-62
2023/07/17 00:43:19;;;;;;;;;;;;;;;;;;5105373;28;19930;-62
2023/07/17 00:45:46;;;;;;;;;;;;;;;;;;5106536;28;19927;-62
2023/07/17 00:48:11;;;;;;;;;;;;;;;;;;5105863;28;20317;-62
2023/07/17 00:50:37;;;;;;;;;;;;;;;;;;5110603;27;19931;-62
2023/07/17 00:53:06;;;;;;;;;;;;;;;;;;5106471;28;19924;-62
2023/07/17 00:55:32;;;;;;;;;;;;;;;;;;5106687;28;19924;-62
2023/07/17 00:57:58;;;;;;;;;;;;;;;;;;5106357;28;20455;-61
2023/07/17 01:00:24;;;;;;;;;;;;;;;;;;5105895;28;20014;-62
2023/07/17 01:02:50;;;;;;;;;;;;;;;;;;5108616;27;20002;-62
2023/07/17 01:05:16;;;;;;;;;;;;;;;;;;5106155;28;19924;-62
2023/07/17 01:07:41;;;;;;;;;;;;;;;;;;5106383;28;20377;-62
2023/07/17 01:10:08;;;;;;;;;;;;;;;;;;5105556;28;19920;-62
2023/07/17 01:12:34;;;;;;;;;;;;;;;;;;5105786;28;19923;-62
2023/07/17 01:15:00;;;;;;;;;;;;;;;;;;5105103;28;19987;-62
2023/07/17 01:17:26;;;;;;;;;;;;;;;;;;5105012;27;20396;-62
2023/07/17 01:19:52;;;;;;;;;;;;;;;;;;5106047;28;20271;-62
2023/07/17 01:22:18;;;;;;;;;;;;;;;;;;5105865;28;20412;-62
2023/07/17 01:24:44;;;;;;;;;;;;;;;;;;5106149;28;19924;-62
2023/07/17 01:27:10;;;;;;;;;;;;;;;;;;5105724;28;19930;-62
2023/07/17 01:29:35;;;;;;;;;;;;;;;;;;5105207;28;20365;-62
2023/07/17 01:32:01;;;;;;;;;;;;;;;;;;5105197;28;19935;-63
2023/07/17 01:34:27;;;;;;;;;;;;;;;;;;5106108;27;19923;-62
2023/07/17 01:36:53;;;;;;;;;;;;;;;;;;5105469;28;19957;-62
2023/07/17 01:39:19;;;;;;;;;;;;;;;;;;5105877;28;20013;-62
2023/07/17 01:41:45;;;;;;;;;;;;;;;;;;5105548;28;19927;-62
2023/07/17 01:44:11;;;;;;;;;;;;;;;;;;5103808;27;19927;-62
2023/07/17 01:46:37;;;;;;;;;;;;;;;;;;5111495;27;19931;-62
2023/07/17 01:49:03;;;;;;;;;;;;;;;;;;5112375;27;19924;-62
2023/07/17 01:51:29;;;;;;;;;;;;;;;;;;5114796;27;19924;-62
2023/07/17 01:53:55;;;;;;;;;;;;;;;;;;5105151;28;20186;-62
2023/07/17 01:56:21;;;;;;;;;;;;;;;;;;5105138;28;19928;-62
2023/07/17 01:58:47;;;;;;;;;;;;;;;;;;5104815;28;19931;-62
2023/07/17 02:01:13;;;;;;;;;;;;;;;;;;5104475;28;19931;-62
2023/07/17 02:03:38;;;;;;;;;;;;;;;;;;5105251;28;20551;-62
2023/07/17 02:06:04;;;;;;;;;;;;;;;;;;5106069;27;19924;-62
2023/07/17 02:08:30;;;;;;;;;;;;;;;;;;5106796;27;19979;-62
2023/07/17 02:10:56;;;;;;;;;;;;;;;;;;5108222;27;19978;-62
2023/07/17 02:13:22;;;;;;;;;;;;;;;;;;5104749;28;20028;-63
2023/07/17 02:15:48;;;;;;;;;;;;;;;;;;5109189;27;20391;-62
2023/07/17 02:18:14;;;;;;;;;;;;;;;;;;5103594;28;20000;-62
2023/07/17 02:20:40;;;;;;;;;;;;;;;;;;5103687;28;20386;-62
2023/07/17 02:23:06;;;;;;;;;;;;;;;;;;5104886;28;19966;-62
2023/07/17 02:25:32;;;;;;;;;;;;;;;;;;5109381;27;20270;-62
2023/07/17 02:27:58;;;;;;;;;;;;;;;;;;5108371;27;20388;-62
2023/07/17 02:30:24;;;;;;;;;;;;;;;;;;5104187;28;20012;-62
2023/07/17 02:32:50;;;;;;;;;;;;;;;;;;5103814;28;19924;-62
2023/07/17 02:35:16;;;;;;;;;;;;;;;;;;5104553;28;20369;-62
2023/07/17 02:37:42;;;;;;;;;;;;;;;;;;5104080;28;19951;-62
2023/07/17 02:40:10;;;;;;;;;;;;;;;;;;5104165;28;19927;-62
2023/07/17 02:42:36;;;;;;;;;;;;;;;;;;5103736;28;19923;-62
2023/07/17 02:45:03;;;;;;;;;;;;;;;;;;5109679;27;20028;-63
2023/07/17 02:47:29;;;;;;;;;;;;;;;;;;5111838;27;20010;-62
2023/07/17 02:49:55;;;;;;;;;;;;;;;;;;5104592;28;20011;-62
2023/07/17 02:52:21;;;;;;;;;;;;;;;;;;5104383;28;20019;-62
2023/07/17 02:54:47;;;;;;;;;;;;;;;;;;5104332;27;19963;-62
2023/07/17 02:57:14;;;;;;;;;;;;;;;;;;5103083;28;19923;-62
2023/07/17 02:59:40;;;;;;;;;;;;;;;;;;5103820;28;19977;-62
2023/07/17 03:02:06;;;;;;;;;;;;;;;;;;5103474;28;19935;-63
2023/07/17 03:04:32;;;;;;;;;;;;;;;;;;5103613;28;19958;-62
2023/07/17 03:06:58;;;;;;;;;;;;;;;;;;5137612;27;19928;-62
2023/07/17 03:09:25;;;;;;;;;;;;;;;;;;5103715;28;19946;-62
2023/07/17 03:11:51;;;;;;;;;;;;;;;;;;5106725;27;20005;-62
2023/07/17 03:14:17;;;;;;;;;;;;;;;;;;5103829;28;19932;-62
2023/07/17 03:16:43;;;;;;;;;;;;;;;;;;5103082;28;19924;-62
2023/07/17 03:19:09;;;;;;;;;;;;;;;;;;5103553;28;19931;-62
2023/07/17 03:21:35;;;;;;;;;;;;;;;;;;5096742;28;19923;-62
2023/07/17 03:24:01;;;;;;;;;;;;;;;;;;5110621;27;20589;-62
2023/07/17 03:26:27;;;;;;;;;;;;;;;;;;5105439;27;19923;-62
2023/07/17 03:28:53;;;;;;;;;;;;;;;;;;5091316;28;20343;-62
2023/07/17 03:31:19;;;;;;;;;;;;;;;;;;5114967;27;20409;-62
2023/07/17 03:33:45;;;;;;;;;;;;;;;;;;5103734;28;20296;-60
2023/07/17 03:36:11;;;;;;;;;;;;;;;;;;5103388;28;19931;-60
2023/07/17 03:38:37;;;;;;;;;;;;;;;;;;5107177;28;19963;-60
2023/07/17 03:41:03;;;;;;;;;;;;;;;;;;5106619;28;20015;-60
2023/07/17 03:43:28;;;;;;;;;;;;;;;;;;5103696;28;20017;-59
2023/07/17 03:45:54;;;;;;;;;;;;;;;;;;5103194;28;20409;-59
2023/07/17 03:48:20;;;;;;;;;;;;;;;;;;5103238;28;19924;-60
2023/07/17 03:50:46;;;;;;;;;;;;;;;;;;5102190;28;19930;-60
2023/07/17 03:53:12;;;;;;;;;;;;;;;;;;5103286;28;19928;-60
2023/07/17 03:55:38;;;;;;;;;;;;;;;;;;5102269;28;20052;-59
2023/07/17 03:58:04;;;;;;;;;;;;;;;;;;5103131;28;19923;-59
2023/07/17 04:00:30;;;;;;;;;;;;;;;;;;5103851;28;19930;-60
2023/07/17 04:02:56;;;;;;;;;;;;;;;;;;5102625;28;19924;-61
2023/07/17 04:05:22;;;;;;;;;;;;;;;;;;5103102;28;20564;-61
2023/07/17 04:07:47;;;;;;;;;;;;;;;;;;5102938;28;20080;-61
2023/07/17 04:10:13;;;;;;;;;;;;;;;;;;5102383;28;20511;-61
2023/07/17 04:12:40;;;;;;;;;;;;;;;;;;5116365;28;20596;-61
2023/07/17 04:15:05;;;;;;;;;;;;;;;;;;5103622;28;19924;-61
2023/07/17 04:17:31;;;;;;;;;;;;;;;;;;5102565;28;19934;-62
2023/07/17 04:19:57;;;;;;;;;;;;;;;;;;5103207;28;20010;-61
2023/07/17 04:22:23;;;;;;;;;;;;;;;;;;5103008;28;20385;-61
2023/07/17 04:24:49;;;;;;;;;;;;;;;;;;5101161;28;19924;-60
2023/07/17 04:27:15;;;;;;;;;;;;;;;;;;5102762;28;20373;-61
2023/07/17 04:29:41;;;;;;;;;;;;;;;;;;5103433;28;19924;-61
2023/07/17 04:32:07;;;;;;;;;;;;;;;;;;5102003;28;19931;-61
2023/07/17 04:34:33;;;;;;;;;;;;;;;;;;5102611;28;19930;-62
2023/07/17 04:36:59;;;;;;;;;;;;;;;;;;5102376;28;20377;-61
2023/07/17 04:39:25;;;;;;;;;;;;;;;;;;5117849;28;20027;-61
2023/07/17 04:41:52;;;;;;;;;;;;;;;;;;5112557;28;20014;-61
2023/07/17 04:44:18;;;;;;;;;;;;;;;;;;5107659;27;19928;-61
2023/07/17 04:46:44;;;;;;;;;;;;;;;;;;5124144;27;19954;-61
2023/07/17 04:49:10;;;;;;;;;;;;;;;;;;5120068;27;20404;-61
2023/07/17 04:51:36;;;;;;;;;;;;;;;;;;5107042;28;19986;-61
2023/07/17 04:54:02;;;;;;;;;;;;;;;;;;5106466;28;20027;-61
2023/07/17 04:56:28;;;;;;;;;;;;;;;;;;5106447;28;19975;-61
2023/07/17 04:58:53;;;;;;;;;;;;;;;;;;5105410;28;19963;-61
2023/07/17 05:01:19;;;;;;;;;;;;;;;;;;5105155;28;19971;-60
2023/07/17 05:03:45;;;;;;;;;;;;;;;;;;5105762;27;19935;-61
2023/07/17 05:06:11;;;;;;;;;;;;;;;;;;5106425;27;20038;-61
2023/07/17 05:08:37;;;;;;;;;;;;;;;;;;5105429;28;19926;-61
2023/07/17 05:11:04;;;;;;;;;;;;;;;;;;5106014;28;19935;-61
2023/07/17 05:13:30;;;;;;;;;;;;;;;;;;5106685;28;19920;-61
2023/07/17 05:15:56;;;;;;;;;;;;;;;;;;5120425;27;20010;-61
2023/07/17 05:18:22;;;;;;;;;;;;;;;;;;5105528;28;20022;-60
2023/07/17 05:20:48;;;;;;;;;;;;;;;;;;5107685;27;20010;-61
2023/07/17 05:23:14;;;;;;;;;;;;;;;;;;5105374;27;20069;-61
2023/07/17 05:25:40;;;;;;;;;;;;;;;;;;5120188;27;20372;-61
2023/07/17 05:28:06;;;;;;;;;;;;;;;;;;5110924;27;19928;-62
2023/07/17 05:30:32;;;;;;;;;;;;;;;;;;5104642;27;19931;-63
2023/07/17 05:32:58;;;;;;;;;;;;;;;;;;5106159;27;19979;-61
2023/07/17 05:35:24;;;;;;;;;;;;;;;;;;5110285;27;19924;-61
2023/07/17 05:37:50;;;;;;;;;;;;;;;;;;5104816;28;20598;-61
2023/07/17 05:40:16;;;;;;;;;;;;;;;;;;5100398;28;20430;-63
2023/07/17 05:42:42;;;;;;;;;;;;;;;;;;5106186;27;19928;-64
2023/07/17 05:45:08;;;;;;;;;;;;;;;;;;5104313;27;19961;-62
2023/07/17 05:47:34;;;;;;;;;;;;;;;;;;5100168;27;19935;-63
2023/07/17 05:50:00;;;;;;;;;;;;;;;;;;5097351;28;19924;-63
2023/07/17 05:52:26;;;;;;;;;;;;;;;;;;5101368;27;20835;-62
2023/07/17 05:54:52;;;;;;;;;;;;;;;;;;5104018;27;19934;-63
2023/07/17 05:57:18;;;;;;;;;;;;;;;;;;5105139;28;19923;-61
2023/07/17 05:59:44;;;;;;;;;;;;;;;;;;5110781;27;19924;-62
2023/07/17 06:02:10;;;;;;;;;;;;;;;;;;5111206;27;19919;-62
2023/07/17 06:04:36;;;;;;;;;;;;;;;;;;5097805;28;19923;-61
2023/07/17 06:07:03;;;;;;;;;;;;;;;;;;5105369;27;20474;-62
2023/07/17 06:09:29;;;;;;;;;;;;;;;;;;5106763;27;19969;-61
2023/07/17 06:11:55;;;;;;;;;;;;;;;;;;5104993;28;19946;-61
2023/07/17 06:14:21;;;;;;;;;;;;;;;;;;5103812;28;20292;-61
2023/07/17 06:16:47;;;;;;;;;;;;;;;;;;5103927;28;19924;-61
2023/07/17 06:19:13;;;;;;;;;;;;;;;;;;5109711;27;19932;-61
2023/07/17 06:21:39;;;;;;;;;;;;;;;;;;5104613;28;20035;-61
2023/07/17 06:24:07;;;;;;;;;;;;;;;;;;5110220;27;19924;-61
2023/07/17 06:26:33;;;;;;;;;;;;;;;;;;5102908;28;19931;-62
2023/07/17 06:28:59;;;;;;;;;;;;;;;;;;5103657;28;19932;-61
2023/07/17 06:31:25;;;;;;;;;;;;;;;;;;5102352;28;19965;-61
2023/07/17 06:33:51;;;;;;;;;;;;;;;;;;5101489;28;19954;-61
2023/07/17 06:36:17;;;;;;;;;;;;;;;;;;5105572;27;20396;-61
2023/07/17 06:38:43;;;;;;;;;;;;;;;;;;5103575;28;19931;-61
2023/07/17 06:41:08;;;;;;;;;;;;;;;;;;5103763;28;19925;-61
2023/07/17 06:43:34;;;;;;;;;;;;;;;;;;5104126;28;20008;-62
2023/07/17 06:46:00;;;;;;;;;;;;;;;;;;5103960;28;19928;-61
2023/07/17 06:48:26;;;;;;;;;;;;;;;;;;5103411;28;19976;-61
2023/07/17 06:50:52;;;;;;;;;;;;;;;;;;5104044;28;19928;-61
2023/07/17 06:53:18;;;;;;;;;;;;;;;;;;5119410;27;19923;-61
2023/07/17 06:55:44;;;;;;;;;;;;;;;;;;5107113;27;19924;-61
2023/07/17 06:58:10;;;;;;;;;;;;;;;;;;5104169;28;19924;-61
2023/07/17 07:00:36;;;;;;;;;;;;;;;;;;5102955;28;19931;-62
2023/07/17 07:03:02;;;;;;;;;;;;;;;;;;5090476;28;19943;-63
2023/07/17 07:05:28;;;;;;;;;;;;;;;;;;5104065;28;19927;-62
2023/07/17 07:07:53;;;;;;;;;;;;;;;;;;5102324;28;19925;-61
2023/07/17 07:10:19;;;;;;;;;;;;;;;;;;5104221;28;19931;-61
2023/07/17 07:12:45;;;;;;;;;;;;;;;;;;5104889;27;19931;-62
2023/07/17 07:15:11;;;;;;;;;;;;;;;;;;5103084;28;19924;-61
2023/07/17 07:17:37;;;;;;;;;;;;;;;;;;5102763;28;19924;-61
2023/07/17 07:20:04;;;;;;;;;;;;;;;;;;5103455;28;19930;-62
2023/07/17 07:22:30;;;;;;;;;;;;;;;;;;5104487;28;19928;-61
2023/07/17 07:24:56;;;;;;;;;;;;;;;;;;5136997;27;19924;-61
2023/07/17 07:27:22;;;;;;;;;;;;;;;;;;5104029;28;19928;-61
2023/07/17 07:29:48;;;;;;;;;;;;;;;;;;5103401;28;20404;-61
2023/07/17 07:32:14;;;;;;;;;;;;;;;;;;5102513;28;19927;-61
2023/07/17 07:34:40;;;;;;;;;;;;;;;;;;5103174;28;19923;-61
2023/07/17 07:37:06;;;;;;;;;;;;;;;;;;5105360;27;20680;-61
2023/07/17 07:39:32;;;;;;;;;;;;;;;;;;5103165;28;19924;-62
2023/07/17 07:41:58;;;;;;;;;;;;;;;;;;5103846;28;19950;-61
2023/07/17 07:44:24;;;;;;;;;;;;;;;;;;5103544;28;20381;-61
2023/07/17 07:46:50;;;;;;;;;;;;;;;;;;5103017;28;20453;-61
2023/07/17 07:49:16;;;;;;;;;;;;;;;;;;5103267;28;19924;-61
2023/07/17 07:51:42;;;;;;;;;;;;;;;;;;5103260;28;19934;-62
2023/07/17 07:54:08;;;;;;;;;;;;;;;;;;5103071;28;19924;-61
2023/07/17 07:56:34;;;;;;;;;;;;;;;;;;5101848;28;20459;-61
2023/07/17 07:59:00;;;;;;;;;;;;;;;;;;5103424;28;19938;-61
2023/07/17 08:01:26;;;;;;;;;;;;;;;;;;5113242;28;19924;-61
2023/07/17 08:03:52;;;;;;;;;;;;;;;;;;5103431;28;20015;-61
2023/07/17 08:06:18;;;;;;;;;;;;;;;;;;5108011;27;19948;-59
2023/07/17 08:08:44;;;;;;;;;;;;;;;;;;5111207;28;19928;-59
2023/07/17 08:11:09;;;;;;;;;;;;;;;;;;5104852;28;20389;-59
2023/07/17 08:13:35;;;;;;;;;;;;;;;;;;5103140;28;20053;-59
2023/07/17 08:16:01;;;;;;;;;;;;;;;;;;5101057;28;20488;-59
2023/07/17 08:18:27;;;;;;;;;;;;;;;;;;5103055;28;20020;-59
2023/07/17 08:20:53;;;;;;;;;;;;;;;;;;5107326;28;19924;-59
2023/07/17 08:23:19;;;;;;;;;;;;;;;;;;5107349;28;20080;-59
2023/07/17 08:25:45;;;;;;;;;;;;;;;;;;5107110;28;20441;-59
2023/07/17 08:28:11;;;;;;;;;;;;;;;;;;5106018;28;20089;-59
2023/07/17 08:30:37;;;;;;;;;;;;;;;;;;5106633;27;20072;-59
2023/07/17 08:33:03;;;;;;;;;;;;;;;;;;5106691;28;19999;-59
2023/07/17 08:35:29;;;;;;;;;;;;;;;;;;5105882;28;19927;-59
2023/07/17 08:37:54;;;;;;;;;;;;;;;;;;5106884;28;19924;-58
2023/07/17 08:40:20;;;;;;;;;;;;;;;;;;5106581;28;19931;-59
2023/07/17 08:42:46;;;;;;;;;;;;;;;;;;5104909;28;19931;-58
2023/07/17 08:45:13;;;;;;;;;;;;;;;;;;5105419;28;19947;-59
2023/07/17 08:47:39;;;;;;;;;;;;;;;;;;5106743;28;19924;-59
2023/07/17 08:50:05;;;;;;;;;;;;;;;;;;5114573;27;20347;-58
2023/07/17 08:52:31;;;;;;;;;;;;;;;;;;5108372;27;20412;-59
2023/07/17 08:54:57;;;;;;;;;;;;;;;;;;5107564;27;20022;-58
2023/07/17 08:57:23;;;;;;;;;;;;;;;;;;5105414;28;20018;-59
2023/07/17 08:59:48;;;;;;;;;;;;;;;;;;5114012;27;20013;-59
2023/07/17 09:02:14;;;;;;;;;;;;;;;;;;5125111;27;20002;-59
2023/07/17 09:04:40;;;;;;;;;;;;;;;;;;5106788;28;20567;-58
2023/07/17 09:07:06;;;;;;;;;;;;;;;;;;5107759;27;19924;-59
2023/07/17 09:09:32;;;;;;;;;;;;;;;;;;5108236;27;19927;-59
2023/07/17 09:11:58;;;;;;;;;;;;;;;;;;5105752;28;19930;-58
2023/07/17 09:14:24;;;;;;;;;;;;;;;;;;5102843;28;19927;-59
2023/07/17 09:16:50;;;;;;;;;;;;;;;;;;5105458;28;20097;-59
2023/07/17 09:19:16;;;;;;;;;;;;;;;;;;5105725;28;19923;-59
2023/07/17 09:21:42;;;;;;;;;;;;;;;;;;5105951;28;20010;-60
2023/07/17 09:24:08;;;;;;;;;;;;;;;;;;5106056;28;19979;-59
2023/07/17 09:26:33;;;;;;;;;;;;;;;;;;5104960;28;19932;-59
2023/07/17 09:28:59;;;;;;;;;;;;;;;;;;5106713;28;20026;-59
2023/07/17 09:31:25;;;;;;;;;;;;;;;;;;5104598;28;20390;-58
2023/07/17 09:33:51;;;;;;;;;;;;;;;;;;5106125;28;19924;-58
2023/07/17 09:36:17;;;;;;;;;;;;;;;;;;5105488;28;20316;-58
2023/07/17 09:38:43;;;;;;;;;;;;;;;;;;5105803;28;19968;-59
2023/07/17 09:41:09;;;;;;;;;;;;;;;;;;5105130;27;19928;-58
2023/07/17 09:43:35;;;;;;;;;;;;;;;;;;5110256;27;19924;-58
2023/07/17 09:46:01;;;;;;;;;;;;;;;;;;5105240;28;19924;-58
2023/07/17 09:48:27;;;;;;;;;;;;;;;;;;5106018;28;19948;-58
2023/07/17 09:50:53;;;;;;;;;;;;;;;;;;5114480;27;20384;-59
2023/07/17 09:53:19;;;;;;;;;;;;;;;;;;5105458;28;19927;-58
2023/07/17 09:55:45;;;;;;;;;;;;;;;;;;5104315;27;19987;-58
2023/07/17 09:58:11;;;;;;;;;;;;;;;;;;5105158;28;19927;-58
2023/07/17 10:00:37;;;;;;;;;;;;;;;;;;5105584;27;20400;-58
2023/07/17 10:03:03;;;;;;;;;;;;;;;;;;5117702;27;19959;-59
2023/07/17 10:05:29;;;;;;;;;;;;;;;;;;5103893;28;19967;-58
2023/07/17 10:07:55;;;;;;;;;;;;;;;;;;5104996;28;20004;-59
2023/07/17 10:10:21;;;;;;;;;;;;;;;;;;5104124;28;19971;-58
2023/07/17 10:12:47;;;;;;;;;;;;;;;;;;5105394;28;19930;-58
2023/07/17 10:15:13;;;;;;;;;;;;;;;;;;5104264;28;19930;-58
2023/07/17 10:17:39;;;;;;;;;;;;;;;;;;5104857;28;19973;-58
2023/07/17 10:20:05;;;;;;;;;;;;;;;;;;5104944;28;19949;-58
2023/07/17 10:22:32;;;;;;;;;;;;;;;;;;5105561;28;20385;-58
2023/07/17 10:24:58;;;;;;;;;;;;;;;;;;5104297;28;19924;-58
2023/07/17 10:27:24;;;;;;;;;;;;;;;;;;5104724;28;20377;-58
2023/07/17 10:29:50;;;;;;;;;;;;;;;;;;5103385;27;19968;-58
2023/07/17 10:32:16;;;;;;;;;;;;;;;;;;5105199;28;19927;-58
2023/07/17 10:34:42;;;;;;;;;;;;;;;;;;5104752;28;19973;-58
2023/07/17 10:37:08;;;;;;;;;;;;;;;;;;5107048;27;19976;-61
2023/07/17 10:39:33;;;;;;;;;;;;;;;;;;5103704;28;19931;-60
2023/07/17 10:41:59;;;;;;;;;;;;;;;;;;5105127;27;19923;-59
2023/07/17 10:44:25;;;;;;;;;;;;;;;;;;5103678;28;20413;-58
2023/07/17 10:46:51;;;;;;;;;;;;;;;;;;5097204;28;20634;-58
2023/07/17 10:49:17;;;;;;;;;;;;;;;;;;5110995;27;19977;-59
2023/07/17 10:51:43;;;;;;;;;;;;;;;;;;5109979;27;19928;-58
2023/07/17 10:54:09;;;;;;;;;;;;;;;;;;5105162;27;19927;-58
2023/07/17 10:56:35;;;;;;;;;;;;;;;;;;5104287;28;19923;-58
2023/07/17 10:59:01;;;;;;;;;;;;;;;;;;5114852;27;19924;-58
2023/07/17 11:01:27;;;;;;;;;;;;;;;;;;5103249;28;19928;-58
2023/07/17 11:03:53;;;;;;;;;;;;;;;;;;5104168;28;19947;-58
2023/07/17 11:06:19;;;;;;;;;;;;;;;;;;5113128;27;19932;-58
2023/07/17 11:08:45;;;;;;;;;;;;;;;;;;5103208;28;19962;-59
2023/07/17 11:11:11;;;;;;;;;;;;;;;;;;5105199;27;19977;-58
2023/07/17 11:13:37;;;;;;;;;;;;;;;;;;5108186;27;20000;-58
2023/07/17 11:16:03;;;;;;;;;;;;;;;;;;5102945;28;19919;-59
2023/07/17 11:18:28;;;;;;;;;;;;;;;;;;5104224;28;19949;-58
2023/07/17 11:20:54;;;;;;;;;;;;;;;;;;5101894;28;19928;-58
2023/07/17 11:23:20;;;;;;;;;;;;;;;;;;5106665;27;19928;-58
2023/07/17 11:25:46;;;;;;;;;;;;;;;;;;5103402;28;20007;-58
2023/07/17 11:28:12;;;;;;;;;;;;;;;;;;5105098;27;20439;-58
2023/07/17 11:30:38;;;;;;;;;;;;;;;;;;5104578;28;19929;-58
2023/07/17 11:33:04;;;;;;;;;;;;;;;;;;5110084;27;19960;-58
2023/07/17 11:35:30;;;;;;;;;;;;;;;;;;5103430;28;19981;-58
2023/07/17 11:37:56;;;;;;;;;;;;;;;;;;5103575;28;19924;-59
2023/07/17 11:40:22;;;;;;;;;;;;;;;;;;5110020;28;19928;-58
2023/07/17 11:42:48;;;;;;;;;;;;;;;;;;5103190;28;19928;-58
2023/07/17 11:45:14;;;;;;;;;;;;;;;;;;5100797;28;19930;-59
2023/07/17 11:47:39;;;;;;;;;;;;;;;;;;5107793;28;20417;-58
2023/07/17 11:50:05;;;;;;;;;;;;;;;;;;5122852;28;19976;-59
2023/07/17 11:52:31;;;;;;;;;;;;;;;;;;5117835;28;19928;-58
2023/07/17 11:54:57;;;;;;;;;;;;;;;;;;5108779;27;19923;-58
2023/07/17 11:57:23;;;;;;;;;;;;;;;;;;5107703;27;19976;-59
2023/07/17 11:59:49;;;;;;;;;;;;;;;;;;5106481;28;19924;-58
2023/07/17 12:02:15;;;;;;;;;;;;;;;;;;5111805;27;20361;-58
2023/07/17 12:04:41;;;;;;;;;;;;;;;;;;5108813;27;19980;-59
2023/07/17 12:07:07;;;;;;;;;;;;;;;;;;5114525;27;20288;-58
2023/07/17 12:09:34;;;;;;;;;;;;;;;;;;5116297;27;19923;-59
2023/07/17 12:11:59;;;;;;;;;;;;;;;;;;5106134;28;19928;-58
2023/07/17 12:14:26;;;;;;;;;;;;;;;;;;5116878;27;20014;-58
2023/07/17 12:16:52;;;;;;;;;;;;;;;;;;5105749;28;20042;-59
2023/07/17 12:19:19;;;;;;;;;;;;;;;;;;5105272;28;20030;-58
2023/07/17 12:21:44;;;;;;;;;;;;;;;;;;5106442;28;19942;-58
2023/07/17 12:24:10;;;;;;;;;;;;;;;;;;5106829;28;20479;-58
2023/07/17 12:26:36;;;;;;;;;;;;;;;;;;5106944;28;19924;-58
2023/07/17 12:29:03;;;;;;;;;;;;;;;;;;5107671;28;19923;-59
2023/07/17 12:31:28;;;;;;;;;;;;;;;;;;5106611;28;19976;-58
2023/07/17 12:33:54;;;;;;;;;;;;;;;;;;5106797;28;19919;-58
2023/07/17 12:36:20;;;;;;;;;;;;;;;;;;5107099;27;19924;-57
2023/07/17 12:38:46;;;;;;;;;;;;;;;;;;5109370;27;19935;-58
2023/07/17 12:41:12;;;;;;;;;;;;;;;;;;5106949;28;19928;-58
2023/07/17 12:43:38;;;;;;;;;;;;;;;;;;5106769;28;19976;-57
2023/07/17 12:46:04;;;;;;;;;;;;;;;;;;5106045;28;19924;-58
2023/07/17 12:48:30;;;;;;;;;;;;;;;;;;5107040;28;19935;-60
2023/07/17 12:50:56;;;;;;;;;;;;;;;;;;5106382;28;20738;-60
2023/07/17 12:53:22;;;;;;;;;;;;;;;;;;5106499;28;19934;-60
2023/07/17 12:55:48;;;;;;;;;;;;;;;;;;5106455;28;19932;-61
2023/07/17 12:58:14;;;;;;;;;;;;;;;;;;5114880;27;20557;-61
2023/07/17 13:00:40;;;;;;;;;;;;;;;;;;5105706;28;20454;-60
2023/07/17 13:03:06;;;;;;;;;;;;;;;;;;5121383;27;19924;-61
2023/07/17 13:05:32;;;;;;;;;;;;;;;;;;5106507;28;20040;-62
2023/07/17 13:07:57;;;;;;;;;;;;;;;;;;5107201;28;20403;-61
2023/07/17 13:10:23;;;;;;;;;;;;;;;;;;5117850;27;19923;-61
2023/07/17 13:12:49;;;;;;;;;;;;;;;;;;5108062;27;19923;-61
2023/07/17 13:15:16;;;;;;;;;;;;;;;;;;5106248;28;19930;-61
2023/07/17 13:17:42;;;;;;;;;;;;;;;;;;5103730;28;20300;-61
2023/07/17 13:20:08;;;;;;;;;;;;;;;;;;5106119;28;19924;-61
2023/07/17 13:22:34;;;;;;;;;;;;;;;;;;5105785;28;19930;-61
2023/07/17 13:25:00;;;;;;;;;;;;;;;;;;5106131;28;20400;-61
2023/07/17 13:27:26;;;;;;;;;;;;;;;;;;5103551;28;19927;-60
2023/07/17 13:29:52;;;;;;;;;;;;;;;;;;5106117;27;19924;-61
2023/07/17 13:32:18;;;;;;;;;;;;;;;;;;5093650;28;19924;-61
2023/07/17 13:34:43;;;;;;;;;;;;;;;;;;5105480;28;20007;-60
2023/07/17 13:37:09;;;;;;;;;;;;;;;;;;5109950;27;19924;-61
2023/07/17 13:39:35;;;;;;;;;;;;;;;;;;5116904;27;19942;-61
2023/07/17 13:42:02;;;;;;;;;;;;;;;;;;5111717;27;19926;-61
2023/07/17 13:44:28;;;;;;;;;;;;;;;;;;5105407;28;19931;-61
2023/07/17 13:46:55;;;;;;;;;;;;;;;;;;5105862;28;19924;-61
2023/07/17 13:49:21;;;;;;;;;;;;;;;;;;5105556;28;19954;-61
2023/07/17 13:51:48;;;;;;;;;;;;;;;;;;5117085;27;19987;-61
2023/07/17 13:54:14;;;;;;;;;;;;;;;;;;5120780;27;19942;-61
2023/07/17 13:56:40;;;;;;;;;;;;;;;;;;5113021;27;20519;-61
2023/07/17 13:59:07;;;;;;;;;;;;;;;;;;5104963;28;19959;-60
2023/07/17 14:01:33;;;;;;;;;;;;;;;;;;5105277;28;19924;-61
2023/07/17 14:03:59;;;;;;;;;;;;;;;;;;5105712;28;20314;-60
2023/07/17 14:06:25;;;;;;;;;;;;;;;;;;5105181;28;20413;-61
2023/07/17 14:08:50;;;;;;;;;;;;;;;;;;5105694;28;19931;-61
2023/07/17 14:11:16;;;;;;;;;;;;;;;;;;5108716;27;19924;-61
2023/07/17 14:13:42;;;;;;;;;;;;;;;;;;5105119;28;19923;-61
2023/07/17 14:16:08;;;;;;;;;;;;;;;;;;5103273;28;20521;-61
2023/07/17 14:18:36;;;;;;;;;;;;;;;;;;5104606;28;19959;-61
2023/07/17 14:21:02;;;;;;;;;;;;;;;;;;5117129;27;20387;-61
2023/07/17 14:23:28;;;;;;;;;;;;;;;;;;5105782;28;20018;-61
2023/07/17 14:25:54;;;;;;;;;;;;;;;;;;5105661;27;19974;-61
2023/07/17 14:28:20;;;;;;;;;;;;;;;;;;5104706;28;19924;-61
2023/07/17 14:30:46;;;;;;;;;;;;;;;;;;5097980;28;19988;-61
2023/07/17 14:33:12;;;;;;;;;;;;;;;;;;5104774;28;19928;-61
2023/07/17 14:35:38;;;;;;;;;;;;;;;;;;5101570;28;20014;-60
2023/07/17 14:38:04;;;;;;;;;;;;;;;;;;5104602;28;19931;-61
2023/07/17 14:40:30;;;;;;;;;;;;;;;;;;5105460;28;19927;-61
2023/07/17 14:42:56;;;;;;;;;;;;;;;;;;5102208;28;19920;-61
2023/07/17 14:45:22;;;;;;;;;;;;;;;;;;5110672;27;20315;-61
2023/07/17 14:47:48;;;;;;;;;;;;;;;;;;5105825;27;19936;-61
2023/07/17 14:50:19;;;;;;;;;;;;;;;;;;5110640;27;19920;-61
2023/07/17 14:52:44;;;;;;;;;;;;;;;;;;5102204;27;19966;-61
2023/07/17 14:55:10;;;;;;;;;;;;;;;;;;5111262;27;19962;-61
2023/07/17 14:57:36;;;;;;;;;;;;;;;;;;5104287;28;20019;-61
2023/07/17 15:00:02;;;;;;;;;;;;;;;;;;5103067;28;19959;-62
2023/07/17 15:02:28;;;;;;;;;;;;;;;;;;5104155;28;19931;-61
2023/07/17 15:04:54;;;;;;;;;;;;;;;;;;5104617;28;19923;-61
2023/07/17 15:07:20;;;;;;;;;;;;;;;;;;5104115;27;19930;-60
2023/07/17 15:09:46;;;;;;;;;;;;;;;;;;5109529;27;19930;-61
2023/07/17 15:12:12;;;;;;;;;;;;;;;;;;5111799;27;19950;-61
2023/07/17 15:14:38;;;;;;;;;;;;;;;;;;5101941;28;20381;-61
2023/07/17 15:17:04;;;;;;;;;;;;;;;;;;5104042;27;19949;-61
2023/07/17 15:19:29;;;;;;;;;;;;;;;;;;5106941;27;20014;-61
2023/07/17 15:21:55;;;;;;;;;;;;;;;;;;5111732;27;20010;-61
2023/07/17 15:24:21;;;;;;;;;;;;;;;;;;5116288;27;19963;-61
2023/07/17 15:26:47;;;;;;;;;;;;;;;;;;5103979;28;19924;-61
2023/07/17 15:29:13;;;;;;;;;;;;;;;;;;5100704;28;19931;-61
2023/07/17 15:31:39;;;;;;;;;;;;;;;;;;5103032;28;19924;-61
2023/07/17 15:34:05;;;;;;;;;;;;;;;;;;5094154;28;19924;-61
2023/07/17 15:36:31;;;;;;;;;;;;;;;;;;5089565;28;19928;-61
2023/07/17 15:38:59;;;;;;;;;;;;;;;;;;5107444;27;21585;-61
2023/07/17 15:41:25;;;;;;;;;;;;;;;;;;5102429;27;20018;-61
2023/07/17 15:43:51;;;;;;;;;;;;;;;;;;5098747;28;19923;-61
2023/07/17 15:46:17;;;;;;;;;;;;;;;;;;5104043;28;19923;-61
2023/07/17 15:48:42;;;;;;;;;;;;;;;;;;5103112;28;19923;-61
2023/07/17 15:51:08;;;;;;;;;;;;;;;;;;5103981;28;19931;-61
2023/07/17 15:53:34;;;;;;;;;;;;;;;;;;5103450;28;19924;-60
2023/07/17 15:56:00;;;;;;;;;;;;;;;;;;5104534;28;19963;-60
2023/07/17 15:58:26;;;;;;;;;;;;;;;;;;5111413;28;19974;-61
2023/07/17 16:00:52;;;;;;;;;;;;;;;;;;5099522;28;20487;-61
2023/07/17 16:03:18;;;;;;;;;;;;;;;;;;5101022;28;19924;-61
2023/07/17 16:05:44;;;;;;;;;;;;;;;;;;5100819;28;19938;-62
2023/07/17 16:08:10;;;;;;;;;;;;;;;;;;5100653;28;19928;-62
2023/07/17 16:10:36;;;;;;;;;;;;;;;;;;5100614;28;19924;-62
2023/07/17 16:13:02;;;;;;;;;;;;;;;;;;5100531;28;19934;-64
2023/07/17 16:15:28;;;;;;;;;;;;;;;;;;5100901;28;19924;-62
2023/07/17 16:17:54;;;;;;;;;;;;;;;;;;5100239;28;19932;-62
2023/07/17 16:20:20;;;;;;;;;;;;;;;;;;5110176;28;20022;-62
2023/07/17 16:22:46;;;;;;;;;;;;;;;;;;5101170;28;20444;-62
2023/07/17 16:25:12;;;;;;;;;;;;;;;;;;5100542;28;19928;-62
2023/07/17 16:27:38;;;;;;;;;;;;;;;;;;5111234;28;19938;-62
2023/07/17 16:30:04;;;;;;;;;;;;;;;;;;5103569;28;19928;-62
2023/07/17 16:32:29;;;;;;;;;;;;;;;;;;5100445;28;19946;-62
2023/07/17 16:34:55;;;;;;;;;;;;;;;;;;5100491;28;19924;-62
2023/07/17 16:37:21;;;;;;;;;;;;;;;;;;5099672;28;20682;-64